createdAt,value
2023-04-23T00:00:17.672Z,0.00
2023-04-23T00:01:17.638Z,0.00
2023-04-23T00:02:17.732Z,0.00
2023-04-23T00:03:17.747Z,0.00
2023-04-23T00:04:17.735Z,0.00
2023-04-23T00:05:17.650Z,0.00
2023-04-23T00:06:17.624Z,0.00
2023-04-23T00:07:17.591Z,0.00
2023-04-23T00:08:17.591Z,0.00
2023-04-23T00:09:17.567Z,0.00
2023-04-23T00:10:17.607Z,0.00
2023-04-23T00:11:17.559Z,0.00
2023-04-23T00:12:17.538Z,0.00
2023-04-23T00:13:17.538Z,0.00
2023-04-23T00:14:17.534Z,0.00
2023-04-23T00:15:17.548Z,0.00
2023-04-23T00:16:17.563Z,0.00
2023-04-23T00:17:17.518Z,0.00
2023-04-23T00:18:17.635Z,0.00
2023-04-23T00:19:17.501Z,0.00
2023-04-23T00:20:17.510Z,0.00
2023-04-23T00:21:17.472Z,0.00
2023-04-23T00:22:17.467Z,0.00
2023-04-23T00:23:17.456Z,0.00
2023-04-23T00:24:17.452Z,0.00
2023-04-23T00:25:17.475Z,0.00
2023-04-23T00:26:17.434Z,0.00
2023-04-23T00:27:17.424Z,0.00
2023-04-23T00:28:17.425Z,0.00
2023-04-23T00:29:17.413Z,0.00
2023-04-23T00:30:17.509Z,0.00
2023-04-23T00:31:17.445Z,0.00
2023-04-23T00:32:17.390Z,0.00
2023-04-23T00:33:17.384Z,0.00
2023-04-23T00:34:17.366Z,0.00
2023-04-23T00:35:17.361Z,0.00
2023-04-23T00:36:17.383Z,0.00
2023-04-23T00:37:17.365Z,0.00
2023-04-23T00:38:17.338Z,0.00
2023-04-23T00:39:17.331Z,0.00
2023-04-23T00:40:17.335Z,0.00
2023-04-23T00:41:17.362Z,0.00
2023-04-23T00:42:17.332Z,0.00
2023-04-23T00:43:17.295Z,0.00
2023-04-23T00:44:17.492Z,0.00
2023-04-23T00:45:17.350Z,0.00
2023-04-23T00:46:17.363Z,0.00
2023-04-23T00:47:17.333Z,0.00
2023-04-23T00:48:17.423Z,0.00
2023-04-23T00:49:17.249Z,0.00
2023-04-23T00:50:17.368Z,0.00
2023-04-23T00:51:17.243Z,0.00
2023-04-23T00:52:17.222Z,0.00
2023-04-23T00:53:17.223Z,0.00
2023-04-23T00:54:17.227Z,0.00
2023-04-23T00:55:17.207Z,0.00
2023-04-23T00:56:17.224Z,0.00
2023-04-23T00:57:17.193Z,0.00
2023-04-23T00:58:17.204Z,0.00
2023-04-23T00:59:17.170Z,0.00
2023-04-23T01:00:17.163Z,0.00
2023-04-23T01:01:17.264Z,0.00
2023-04-23T01:02:17.209Z,0.00
2023-04-23T01:03:17.265Z,0.00
2023-04-23T01:04:17.207Z,0.00
2023-04-23T01:05:17.124Z,0.00
2023-04-23T01:06:17.140Z,0.00
2023-04-23T01:07:17.108Z,0.00
2023-04-23T01:08:17.112Z,0.00
2023-04-23T01:09:17.094Z,0.00
2023-04-23T01:10:17.093Z,0.00
2023-04-23T01:11:17.110Z,0.00
2023-04-23T01:12:17.091Z,0.00
2023-04-23T01:13:17.055Z,0.00
2023-04-23T01:14:17.059Z,0.00
2023-04-23T01:15:17.049Z,0.00
2023-04-23T01:16:17.077Z,0.00
2023-04-23T01:17:17.031Z,0.00
2023-04-23T01:18:17.039Z,0.00
2023-04-23T01:19:17.018Z,0.00
2023-04-23T01:20:17.017Z,0.00
2023-04-23T01:21:17.105Z,0.00
2023-04-23T01:22:17.004Z,0.00
2023-04-23T01:23:17.005Z,0.00
2023-04-23T01:24:16.973Z,0.00
2023-04-23T01:25:16.978Z,0.00
2023-04-23T01:26:16.984Z,0.00
2023-04-23T01:27:16.953Z,0.00
2023-04-23T01:28:17.051Z,0.00
2023-04-23T01:29:16.944Z,0.00
2023-04-23T01:30:16.929Z,0.00
2023-04-23T01:31:17.002Z,0.00
2023-04-23T01:32:16.921Z,0.00
2023-04-23T01:33:17.913Z,0.00
2023-04-23T01:34:16.893Z,0.00
2023-04-23T01:35:16.895Z,0.00
2023-04-23T01:36:16.909Z,0.00
2023-04-23T01:37:16.871Z,0.00
2023-04-23T01:38:16.861Z,0.00
2023-04-23T01:39:16.856Z,0.00
2023-04-23T01:40:16.843Z,0.00
2023-04-23T01:41:16.870Z,0.00
2023-04-23T01:42:16.833Z,0.00
2023-04-23T01:43:16.821Z,0.00
2023-04-23T01:44:16.823Z,0.00
2023-04-23T01:45:16.807Z,0.00
2023-04-23T01:46:16.849Z,0.00
2023-04-23T01:47:16.799Z,0.00
2023-04-23T01:48:16.857Z,0.00
2023-04-23T01:49:16.781Z,0.00
2023-04-23T01:50:16.770Z,0.00
2023-04-23T01:51:16.787Z,0.00
2023-04-23T01:52:16.754Z,0.00
2023-04-23T01:53:16.752Z,0.00
2023-04-23T01:54:16.736Z,0.00
2023-04-23T01:55:16.734Z,0.00
2023-04-23T01:56:16.745Z,0.00
2023-04-23T01:57:16.711Z,0.00
2023-04-23T01:58:16.703Z,0.00
2023-04-23T01:59:16.697Z,0.00
2023-04-23T02:00:16.687Z,0.00
2023-04-23T02:01:16.724Z,0.00
2023-04-23T02:02:16.717Z,0.00
2023-04-23T02:03:16.728Z,0.00
2023-04-23T02:04:16.834Z,0.00
2023-04-23T02:05:16.782Z,0.00
2023-04-23T02:06:16.679Z,0.00
2023-04-23T02:07:16.664Z,0.00
2023-04-23T02:08:16.643Z,0.00
2023-04-23T02:09:16.640Z,0.00
2023-04-23T02:10:16.615Z,0.00
2023-04-23T02:11:16.632Z,0.00
2023-04-23T02:12:16.606Z,0.00
2023-04-23T02:13:16.589Z,0.00
2023-04-23T02:14:16.581Z,0.00
2023-04-23T02:15:16.616Z,0.00
2023-04-23T02:16:16.637Z,0.00
2023-04-23T02:17:16.559Z,0.00
2023-04-23T02:18:16.549Z,0.00
2023-04-23T02:19:16.809Z,0.00
2023-04-23T02:20:16.546Z,0.00
2023-04-23T02:21:16.552Z,0.00
2023-04-23T02:22:16.513Z,0.00
2023-04-23T02:23:16.507Z,0.00
2023-04-23T02:24:16.508Z,0.00
2023-04-23T02:25:16.491Z,0.00
2023-04-23T02:26:16.505Z,0.00
2023-04-23T02:27:16.475Z,0.00
2023-04-23T02:28:16.472Z,0.00
2023-04-23T02:29:16.457Z,0.00
2023-04-23T02:30:16.456Z,0.00
2023-04-23T02:31:16.544Z,0.00
2023-04-23T02:32:16.431Z,0.00
2023-04-23T02:33:16.430Z,0.00
2023-04-23T02:34:16.419Z,0.00
2023-04-23T02:35:16.427Z,0.00
2023-04-23T02:36:16.436Z,0.00
2023-04-23T02:37:16.398Z,0.00
2023-04-23T02:38:16.390Z,0.00
2023-04-23T02:39:16.365Z,0.00
2023-04-23T02:40:17.384Z,0.00
2023-04-23T02:41:16.384Z,0.00
2023-04-23T02:42:16.352Z,0.00
2023-04-23T02:43:16.362Z,0.00
2023-04-23T02:44:16.339Z,0.00
2023-04-23T02:45:16.345Z,0.00
2023-04-23T02:46:16.385Z,0.00
2023-04-23T02:47:16.316Z,0.00
2023-04-23T02:48:16.308Z,0.00
2023-04-23T02:49:16.289Z,0.00
2023-04-23T02:50:16.297Z,0.00
2023-04-23T02:51:16.311Z,0.00
2023-04-23T02:52:16.275Z,0.00
2023-04-23T02:53:16.370Z,0.00
2023-04-23T02:54:16.275Z,0.00
2023-04-23T02:55:16.249Z,0.00
2023-04-23T02:56:16.267Z,0.00
2023-04-23T02:57:16.228Z,0.00
2023-04-23T02:58:16.218Z,0.00
2023-04-23T02:59:16.225Z,0.00
2023-04-23T03:00:16.209Z,0.00
2023-04-23T03:01:16.237Z,0.00
2023-04-23T03:02:16.254Z,0.00
2023-04-23T03:03:16.314Z,0.00
2023-04-23T03:04:16.184Z,0.00
2023-04-23T03:05:16.163Z,0.00
2023-04-23T03:06:16.193Z,0.00
2023-04-23T03:07:16.153Z,0.00
2023-04-23T03:08:16.151Z,0.00
2023-04-23T03:09:16.134Z,0.00
2023-04-23T03:10:16.161Z,0.00
2023-04-23T03:11:16.146Z,0.00
2023-04-23T03:12:16.117Z,0.00
2023-04-23T03:13:16.287Z,0.00
2023-04-23T03:14:16.099Z,0.00
2023-04-23T03:15:16.093Z,0.00
2023-04-23T03:16:16.131Z,0.00
2023-04-23T03:17:16.083Z,0.00
2023-04-23T03:18:16.075Z,0.00
2023-04-23T03:19:16.060Z,0.00
2023-04-23T03:20:16.043Z,0.00
2023-04-23T03:21:17.097Z,0.00
2023-04-23T03:22:16.041Z,0.00
2023-04-23T03:23:16.034Z,0.00
2023-04-23T03:24:16.020Z,0.00
2023-04-23T03:25:16.020Z,0.00
2023-04-23T03:26:16.008Z,0.00
2023-04-23T03:27:16.021Z,0.00
2023-04-23T03:28:15.995Z,0.00
2023-04-23T03:29:16.068Z,0.00
2023-04-23T03:30:15.976Z,0.00
2023-04-23T03:31:16.021Z,0.00
2023-04-23T03:32:15.980Z,0.00
2023-04-23T03:33:15.954Z,0.00
2023-04-23T03:34:15.946Z,0.00
2023-04-23T03:35:16.953Z,0.00
2023-04-23T03:36:16.930Z,0.00
2023-04-23T03:37:15.942Z,0.00
2023-04-23T03:38:15.907Z,0.00
2023-04-23T03:39:15.912Z,0.00
2023-04-23T03:40:15.926Z,0.00
2023-04-23T03:41:16.544Z,0.00
2023-04-23T03:42:15.903Z,0.00
2023-04-23T03:43:15.870Z,0.00
2023-04-23T03:44:15.872Z,0.00
2023-04-23T03:45:15.860Z,0.00
2023-04-23T03:46:15.853Z,0.00
2023-04-23T03:47:15.872Z,0.00
2023-04-23T03:48:15.842Z,0.00
2023-04-23T03:49:15.853Z,0.00
2023-04-23T03:50:15.818Z,0.00
2023-04-23T03:51:15.809Z,0.00
2023-04-23T03:52:15.823Z,4.00
2023-04-23T03:53:15.794Z,4.00
2023-04-23T03:54:15.794Z,0.00
2023-04-23T03:55:15.776Z,4.00
2023-04-23T03:56:15.778Z,8.00
2023-04-23T03:57:15.799Z,4.00
2023-04-23T03:58:15.754Z,8.00
2023-04-23T03:59:15.752Z,8.00
2023-04-23T04:00:15.738Z,8.00
2023-04-23T04:01:15.732Z,12.00
2023-04-23T04:02:15.886Z,12.00
2023-04-23T04:03:15.837Z,12.00
2023-04-23T04:04:16.026Z,12.00
2023-04-23T04:05:15.909Z,20.00
2023-04-23T04:06:15.698Z,20.00
2023-04-23T04:07:15.715Z,20.00
2023-04-23T04:08:15.730Z,24.00
2023-04-23T04:09:16.674Z,24.00
2023-04-23T04:10:15.669Z,28.00
2023-04-23T04:11:15.670Z,28.00
2023-04-23T04:12:15.675Z,32.00
2023-04-23T04:13:15.646Z,32.00
2023-04-23T04:14:15.634Z,36.00
2023-04-23T04:15:15.625Z,40.00
2023-04-23T04:16:15.642Z,44.00
2023-04-23T04:17:15.623Z,48.00
2023-04-23T04:18:15.627Z,56.00
2023-04-23T04:19:15.600Z,60.00
2023-04-23T04:20:15.589Z,64.00
2023-04-23T04:21:15.578Z,72.00
2023-04-23T04:22:15.577Z,80.00
2023-04-23T04:23:15.606Z,92.00
2023-04-23T04:24:15.562Z,104.00
2023-04-23T04:25:15.548Z,112.00
2023-04-23T04:26:15.537Z,128.00
2023-04-23T04:27:15.538Z,144.00
2023-04-23T04:28:15.540Z,156.00
2023-04-23T04:29:15.519Z,172.00
2023-04-23T04:30:15.511Z,188.00
2023-04-23T04:31:15.528Z,196.00
2023-04-23T04:32:15.489Z,200.00
2023-04-23T04:33:15.505Z,208.00
2023-04-23T04:34:15.473Z,212.00
2023-04-23T04:35:15.465Z,212.00
2023-04-23T04:36:15.450Z,204.00
2023-04-23T04:37:15.460Z,204.00
2023-04-23T04:38:15.460Z,200.00
2023-04-23T04:39:15.437Z,212.00
2023-04-23T04:40:15.428Z,232.00
2023-04-23T04:41:15.413Z,264.00
2023-04-23T04:42:15.436Z,292.00
2023-04-23T04:43:15.397Z,324.00
2023-04-23T04:44:15.390Z,340.00
2023-04-23T04:45:15.384Z,348.00
2023-04-23T04:46:15.419Z,356.00
2023-04-23T04:47:15.393Z,356.00
2023-04-23T04:48:15.385Z,356.00
2023-04-23T04:49:15.357Z,352.00
2023-04-23T04:50:15.346Z,352.00
2023-04-23T04:51:15.343Z,344.00
2023-04-23T04:52:15.357Z,348.00
2023-04-23T04:53:15.323Z,344.00
2023-04-23T04:54:15.311Z,344.00
2023-04-23T04:55:15.306Z,348.00
2023-04-23T04:56:15.290Z,360.00
2023-04-23T04:57:15.316Z,368.00
2023-04-23T04:58:15.281Z,376.00
2023-04-23T04:59:15.286Z,376.00
2023-04-23T05:00:15.267Z,368.00
2023-04-23T05:01:15.267Z,364.00
2023-04-23T05:02:15.366Z,364.00
2023-04-23T05:03:15.373Z,372.00
2023-04-23T05:04:15.461Z,384.00
2023-04-23T05:05:15.239Z,408.00
2023-04-23T05:06:15.222Z,436.00
2023-04-23T05:07:15.237Z,464.00
2023-04-23T05:08:15.210Z,492.00
2023-04-23T05:09:15.202Z,528.00
2023-04-23T05:10:15.197Z,572.00
2023-04-23T05:11:16.196Z,624.00
2023-04-23T05:12:15.205Z,680.00
2023-04-23T05:13:15.178Z,752.00
2023-04-23T05:14:15.163Z,828.00
2023-04-23T05:15:15.176Z,908.00
2023-04-23T05:16:15.199Z,956.00
2023-04-23T05:17:15.145Z,972.00
2023-04-23T05:18:15.163Z,968.00
2023-04-23T05:19:15.144Z,952.00
2023-04-23T05:20:15.124Z,952.00
2023-04-23T05:21:15.136Z,952.00
2023-04-23T05:22:15.095Z,940.00
2023-04-23T05:23:15.139Z,940.00
2023-04-23T05:24:15.086Z,940.00
2023-04-23T05:25:15.089Z,932.00
2023-04-23T05:26:15.199Z,940.00
2023-04-23T05:27:15.076Z,988.00
2023-04-23T05:28:15.073Z,1072.00
2023-04-23T05:29:15.045Z,1176.00
2023-04-23T05:30:15.049Z,1280.00
2023-04-23T05:31:15.039Z,1380.00
2023-04-23T05:32:15.097Z,1504.00
2023-04-23T05:33:15.038Z,1732.00
2023-04-23T05:34:15.011Z,2144.00
2023-04-23T05:35:15.008Z,2528.00
2023-04-23T05:36:14.989Z,3108.00
2023-04-23T05:37:14.981Z,3244.00
2023-04-23T05:38:14.997Z,3192.00
2023-04-23T05:39:14.996Z,2908.00
2023-04-23T05:40:14.953Z,2704.00
2023-04-23T05:41:14.955Z,2832.00
2023-04-23T05:42:14.954Z,2880.00
2023-04-23T05:43:14.956Z,2564.00
2023-04-23T05:44:14.925Z,2452.00
2023-04-23T05:45:14.945Z,2560.00
2023-04-23T05:46:14.957Z,3052.00
2023-04-23T05:47:14.910Z,3616.00
2023-04-23T05:48:14.915Z,3980.00
2023-04-23T05:49:14.892Z,4320.00
2023-04-23T05:50:14.900Z,4488.00
2023-04-23T05:51:14.869Z,4836.00
2023-04-23T05:52:14.868Z,5160.00
2023-04-23T05:53:14.883Z,5364.00
2023-04-23T05:54:14.861Z,5696.00
2023-04-23T05:55:14.839Z,6052.00
2023-04-23T05:56:14.839Z,6596.00
2023-04-23T05:57:14.821Z,7208.00
2023-04-23T05:58:14.837Z,8596.00
2023-04-23T05:59:14.802Z,12208.00
2023-04-23T06:00:14.798Z,16896.00
2023-04-23T06:01:14.787Z,14612.00
2023-04-23T06:02:14.895Z,16416.00
2023-04-23T06:03:15.002Z,13012.00
2023-04-23T06:04:14.891Z,14684.00
2023-04-23T06:05:15.030Z,25088.00
2023-04-23T06:06:14.745Z,24992.00
2023-04-23T06:07:14.738Z,19904.00
2023-04-23T06:08:14.763Z,22304.00
2023-04-23T06:09:14.725Z,21856.00
2023-04-23T06:10:14.712Z,15616.00
2023-04-23T06:11:14.716Z,13884.00
2023-04-23T06:12:14.705Z,12008.00
2023-04-23T06:13:14.724Z,10712.00
2023-04-23T06:14:14.701Z,8224.00
2023-04-23T06:15:14.684Z,7492.00
2023-04-23T06:16:14.697Z,7840.00
2023-04-23T06:17:14.665Z,9256.00
2023-04-23T06:18:14.794Z,10464.00
2023-04-23T06:19:14.651Z,11284.00
2023-04-23T06:20:15.642Z,11560.00
2023-04-23T06:21:14.652Z,15004.00
2023-04-23T06:22:14.629Z,18912.00
2023-04-23T06:23:14.638Z,53376.00
2023-04-23T06:24:14.609Z,53376.00
2023-04-23T06:25:14.608Z,58784.00
2023-04-23T06:26:14.589Z,65824.00
2023-04-23T06:27:14.582Z,53792.00
2023-04-23T06:28:14.601Z,68480.00
2023-04-23T06:29:14.570Z,55296.00
2023-04-23T06:30:14.561Z,72032.00
2023-04-23T06:31:14.578Z,62816.00
2023-04-23T06:32:14.545Z,37888.00
2023-04-23T06:33:14.565Z,62912.00
2023-04-23T06:34:14.531Z,75456.00
2023-04-23T06:35:14.536Z,60224.00
2023-04-23T06:36:14.514Z,76736.00
2023-04-23T06:37:14.502Z,72032.00
2023-04-23T06:38:14.519Z,63424.00
2023-04-23T06:39:14.488Z,68832.00
2023-04-23T06:40:14.484Z,63200.00
2023-04-23T06:41:14.479Z,30080.00
2023-04-23T06:42:14.469Z,22336.00
2023-04-23T06:43:14.495Z,56192.00
2023-04-23T06:44:14.449Z,21248.00
2023-04-23T06:45:14.442Z,31904.00
2023-04-23T06:46:14.434Z,32512.00
2023-04-23T06:47:14.428Z,22752.00
2023-04-23T06:48:14.451Z,24864.00
2023-04-23T06:49:14.407Z,42944.00
2023-04-23T06:50:14.402Z,86528.00
2023-04-23T06:51:14.391Z,83808.00
2023-04-23T06:52:14.392Z,50336.00
2023-04-23T06:53:14.766Z,55584.00
2023-04-23T06:54:14.370Z,76064.00
2023-04-23T06:55:14.385Z,85984.00
2023-04-23T06:56:14.654Z,36064.00
2023-04-23T06:57:14.343Z,37984.00
2023-04-23T06:58:15.551Z,83712.00
2023-04-23T06:59:15.351Z,23264.00
2023-04-23T07:00:14.318Z,81472.00
2023-04-23T07:01:14.349Z,84544.00
2023-04-23T07:02:14.335Z,23200.00
2023-04-23T07:03:14.339Z,26368.00
2023-04-23T07:04:14.359Z,27904.00
2023-04-23T07:05:14.290Z,75296.00
2023-04-23T07:06:14.284Z,89952.00
2023-04-23T07:07:14.289Z,91648.00
2023-04-23T07:08:14.271Z,91200.00
2023-04-23T07:09:14.289Z,22848.00
2023-04-23T07:10:16.954Z,94720.00
2023-04-23T07:11:14.258Z,96576.00
2023-04-23T07:12:14.246Z,95872.00
2023-04-23T07:13:14.240Z,93792.00
2023-04-23T07:14:14.254Z,94656.00
2023-04-23T07:15:14.236Z,94112.00
2023-04-23T07:16:14.238Z,78240.00
2023-04-23T07:17:14.215Z,100576.00
2023-04-23T07:18:14.216Z,34016.00
2023-04-23T07:19:14.224Z,92576.00
2023-04-23T07:20:14.190Z,82816.00
2023-04-23T07:21:14.182Z,38880.00
2023-04-23T07:22:14.176Z,24768.00
2023-04-23T07:23:14.171Z,30240.00
2023-04-23T07:24:14.188Z,22048.00
2023-04-23T07:25:14.154Z,100736.00
2023-04-23T07:26:14.152Z,100416.00
2023-04-23T07:27:14.144Z,103616.00
2023-04-23T07:28:14.133Z,50368.00
2023-04-23T07:29:14.184Z,24512.00
2023-04-23T07:30:14.129Z,17472.00
2023-04-23T07:31:14.112Z,16736.00
2023-04-23T07:32:14.236Z,19136.00
2023-04-23T07:33:14.098Z,82816.00
2023-04-23T07:34:14.111Z,19104.00
2023-04-23T07:35:14.081Z,21184.00
2023-04-23T07:36:14.075Z,22688.00
2023-04-23T07:37:14.069Z,19648.00
2023-04-23T07:38:14.059Z,98816.00
2023-04-23T07:39:14.078Z,98944.00
2023-04-23T07:40:14.052Z,96160.00
2023-04-23T07:41:14.043Z,101376.00
2023-04-23T07:42:14.033Z,83232.00
2023-04-23T07:43:14.032Z,90912.00
2023-04-23T07:44:14.040Z,19936.00
2023-04-23T07:45:14.015Z,76448.00
2023-04-23T07:46:14.020Z,22944.00
2023-04-23T07:47:13.990Z,96448.00
2023-04-23T07:48:13.987Z,94080.00
2023-04-23T07:49:14.227Z,19264.00
2023-04-23T07:50:13.970Z,19872.00
2023-04-23T07:51:13.964Z,83392.00
2023-04-23T07:52:13.965Z,81344.00
2023-04-23T07:53:13.950Z,68352.00
2023-04-23T07:54:13.961Z,54112.00
2023-04-23T07:55:13.932Z,42816.00
2023-04-23T07:56:13.934Z,44928.00
2023-04-23T07:57:14.931Z,44992.00
2023-04-23T07:58:13.917Z,44992.00
2023-04-23T07:59:13.933Z,38624.00
2023-04-23T08:00:13.899Z,16848.00
2023-04-23T08:01:13.891Z,40896.00
2023-04-23T08:02:14.117Z,46528.00
2023-04-23T08:03:13.968Z,46400.00
2023-04-23T08:04:15.141Z,46496.00
2023-04-23T08:05:13.874Z,44992.00
2023-04-23T08:06:13.855Z,16780.00
2023-04-23T08:07:13.849Z,14552.00
2023-04-23T08:08:13.841Z,13088.00
2023-04-23T08:09:13.862Z,12860.00
2023-04-23T08:10:13.828Z,33984.00
2023-04-23T08:11:13.823Z,17280.00
2023-04-23T08:12:13.826Z,17152.00
2023-04-23T08:13:13.806Z,27872.00
2023-04-23T08:14:13.797Z,18304.00
2023-04-23T08:15:13.817Z,18688.00
2023-04-23T08:16:13.813Z,14728.00
2023-04-23T08:17:13.776Z,13712.00
2023-04-23T08:18:13.770Z,13364.00
2023-04-23T08:19:13.764Z,14008.00
2023-04-23T08:20:13.786Z,14848.00
2023-04-23T08:21:13.745Z,21664.00
2023-04-23T08:22:13.736Z,33760.00
2023-04-23T08:23:13.723Z,26208.00
2023-04-23T08:24:13.722Z,38912.00
2023-04-23T08:25:14.739Z,38208.00
2023-04-23T08:26:13.712Z,37088.00
2023-04-23T08:27:13.701Z,36640.00
2023-04-23T08:28:13.694Z,36128.00
2023-04-23T08:29:13.685Z,28416.00
2023-04-23T08:30:13.702Z,31936.00
2023-04-23T08:31:25.845Z,26816.00
2023-04-23T08:32:15.737Z,16108.00
2023-04-23T08:33:13.654Z,16300.00
2023-04-23T08:34:13.652Z,33440.00
2023-04-23T08:35:13.668Z,17472.00
2023-04-23T08:36:13.633Z,24928.00
2023-04-23T08:37:23.068Z,18240.00
2023-04-23T08:38:15.620Z,25024.00
2023-04-23T08:39:13.608Z,34656.00
2023-04-23T08:40:13.870Z,35520.00
2023-04-23T08:41:13.596Z,35808.00
2023-04-23T08:42:13.586Z,35712.00
2023-04-23T08:43:13.583Z,35712.00
2023-04-23T08:44:13.573Z,35520.00
2023-04-23T08:45:13.599Z,33856.00
2023-04-23T08:46:13.606Z,33120.00
2023-04-23T08:47:13.571Z,33568.00
2023-04-23T08:48:13.555Z,34368.00
2023-04-23T08:49:13.540Z,35296.00
2023-04-23T08:50:13.564Z,37088.00
2023-04-23T08:51:13.518Z,39520.00
2023-04-23T08:52:13.519Z,41888.00
2023-04-23T08:53:13.508Z,44416.00
2023-04-23T08:54:13.499Z,46560.00
2023-04-23T08:55:13.524Z,48288.00
2023-04-23T08:56:13.493Z,50816.00
2023-04-23T08:57:13.481Z,54592.00
2023-04-23T08:58:13.527Z,57376.00
2023-04-23T08:59:13.467Z,56608.00
2023-04-23T09:00:13.498Z,54880.00
2023-04-23T09:01:13.503Z,52224.00
2023-04-23T09:02:13.530Z,47328.00
2023-04-23T09:03:13.540Z,40576.00
2023-04-23T09:04:13.433Z,14004.00
2023-04-23T09:05:13.485Z,13688.00
2023-04-23T09:06:13.438Z,30880.00
2023-04-23T09:07:13.410Z,28736.00
2023-04-23T09:08:13.407Z,27040.00
2023-04-23T09:09:13.402Z,26336.00
2023-04-23T09:10:14.822Z,26048.00
2023-04-23T09:11:13.408Z,23904.00
2023-04-23T09:12:13.385Z,25504.00
2023-04-23T09:13:13.377Z,24544.00
2023-04-23T09:14:13.372Z,23808.00
2023-04-23T09:15:13.483Z,23616.00
2023-04-23T09:16:13.388Z,23392.00
2023-04-23T09:17:13.338Z,23232.00
2023-04-23T09:18:13.336Z,23264.00
2023-04-23T09:19:13.331Z,22944.00
2023-04-23T09:20:13.344Z,23296.00
2023-04-23T09:21:13.321Z,23040.00
2023-04-23T09:22:13.307Z,22400.00
2023-04-23T09:23:13.297Z,13564.00
2023-04-23T09:24:13.306Z,20608.00
2023-04-23T09:25:13.308Z,20288.00
2023-04-23T09:26:13.280Z,20640.00
2023-04-23T09:27:13.278Z,21344.00
2023-04-23T09:28:13.265Z,21568.00
2023-04-23T09:29:13.251Z,21504.00
2023-04-23T09:30:13.293Z,21120.00
2023-04-23T09:31:13.235Z,20672.00
2023-04-23T09:32:13.293Z,20224.00
2023-04-23T09:33:13.231Z,19552.00
2023-04-23T09:34:13.214Z,19264.00
2023-04-23T09:35:13.231Z,14212.00
2023-04-23T09:36:13.198Z,14388.00
2023-04-23T09:37:13.192Z,11984.00
2023-04-23T09:38:13.185Z,11592.00
2023-04-23T09:39:13.179Z,16576.00
2023-04-23T09:40:13.206Z,16672.00
2023-04-23T09:41:13.156Z,15784.00
2023-04-23T09:42:13.155Z,14644.00
2023-04-23T09:43:13.141Z,13852.00
2023-04-23T09:44:13.135Z,14136.00
2023-04-23T09:45:13.150Z,14560.00
2023-04-23T09:46:13.151Z,10984.00
2023-04-23T09:47:13.109Z,10692.00
2023-04-23T09:48:13.101Z,10416.00
2023-04-23T09:49:13.099Z,9516.00
2023-04-23T09:50:13.117Z,8756.00
2023-04-23T09:51:13.107Z,8576.00
2023-04-23T09:52:13.073Z,9240.00
2023-04-23T09:53:13.061Z,9536.00
2023-04-23T09:54:13.056Z,9484.00
2023-04-23T09:55:13.046Z,9416.00
2023-04-23T09:56:13.065Z,9224.00
2023-04-23T09:57:13.027Z,9028.00
2023-04-23T09:58:13.029Z,8840.00
2023-04-23T09:59:13.014Z,8764.00
2023-04-23T10:00:14.796Z,8936.00
2023-04-23T10:01:14.106Z,9348.00
2023-04-23T10:02:13.130Z,9704.00
2023-04-23T10:03:13.097Z,10244.00
2023-04-23T10:04:13.150Z,11420.00
2023-04-23T10:05:23.546Z,13204.00
2023-04-23T10:06:25.894Z,14128.00
2023-04-23T10:07:19.634Z,12788.00
2023-04-23T10:08:14.946Z,14500.00
2023-04-23T10:09:12.941Z,14128.00
2023-04-23T10:10:12.960Z,13556.00
2023-04-23T10:11:20.674Z,13080.00
2023-04-23T10:13:13.908Z,12472.00
2023-04-23T10:14:12.897Z,12216.00
2023-04-23T10:15:12.882Z,12112.00
2023-04-23T10:16:22.194Z,12052.00
2023-04-23T10:17:14.881Z,11992.00
2023-04-23T10:18:12.877Z,11840.00
2023-04-23T10:19:13.457Z,11680.00
2023-04-23T10:20:12.881Z,11456.00
2023-04-23T10:21:12.842Z,11284.00
2023-04-23T10:23:13.830Z,11048.00
2023-04-23T10:24:12.826Z,10844.00
2023-04-23T10:25:12.820Z,10756.00
2023-04-23T10:26:12.837Z,10744.00
2023-04-23T10:27:24.819Z,10788.00
2023-04-23T10:28:14.787Z,9068.00
2023-04-23T10:29:12.787Z,9708.00
2023-04-23T10:30:12.805Z,10772.00
2023-04-23T10:31:12.788Z,10852.00
2023-04-23T10:32:12.800Z,11092.00
2023-04-23T10:33:22.442Z,11144.00
2023-04-23T10:34:14.771Z,10968.00
2023-04-23T10:35:12.742Z,10788.00
2023-04-23T10:36:12.754Z,10740.00
2023-04-23T10:37:12.720Z,10748.00
2023-04-23T10:38:13.713Z,10848.00
2023-04-23T10:39:12.707Z,10832.00
2023-04-23T10:40:12.727Z,10848.00
2023-04-23T10:41:12.690Z,11024.00
2023-04-23T10:42:12.681Z,11276.00
2023-04-23T10:43:12.670Z,11544.00
2023-04-23T10:44:12.658Z,11936.00
2023-04-23T10:45:23.399Z,12164.00
2023-04-23T10:46:14.717Z,12460.00
2023-04-23T10:47:12.643Z,12672.00
2023-04-23T10:48:12.634Z,12736.00
2023-04-23T10:49:12.629Z,12704.00
2023-04-23T10:50:12.614Z,12464.00
2023-04-23T10:51:53.143Z,12224.00
2023-04-23T10:52:20.673Z,12048.00
2023-04-23T10:53:14.636Z,11868.00
2023-04-23T10:54:12.580Z,11672.00
2023-04-23T10:55:12.574Z,11568.00
2023-04-23T10:56:12.590Z,11528.00
2023-04-23T10:57:12.561Z,11540.00
2023-04-23T10:58:12.550Z,11496.00
2023-04-23T10:59:12.550Z,11508.00
2023-04-23T11:00:12.540Z,11324.00
2023-04-23T11:01:12.559Z,11120.00
2023-04-23T11:02:12.598Z,10904.00
2023-04-23T11:03:12.648Z,10752.00
2023-04-23T11:04:12.658Z,10660.00
2023-04-23T11:05:12.504Z,8548.00
2023-04-23T11:06:12.514Z,10544.00
2023-04-23T11:07:13.488Z,10544.00
2023-04-23T11:08:19.296Z,10520.00
2023-04-23T11:09:14.477Z,10464.00
2023-04-23T11:10:12.462Z,10480.00
2023-04-23T11:11:12.477Z,10632.00
2023-04-23T11:12:12.454Z,11092.00
2023-04-23T11:13:12.435Z,11912.00
2023-04-23T11:14:12.444Z,12384.00
2023-04-23T11:15:12.428Z,12700.00
2023-04-23T11:16:12.447Z,12888.00
2023-04-23T11:17:12.412Z,12644.00
2023-04-23T11:18:12.400Z,10828.00
2023-04-23T11:19:12.433Z,10364.00
2023-04-23T11:20:12.381Z,10144.00
2023-04-23T11:21:12.403Z,9872.00
2023-04-23T11:22:12.369Z,9816.00
2023-04-23T11:23:12.354Z,9876.00
2023-04-23T11:24:12.370Z,10292.00
2023-04-23T11:25:12.348Z,10736.00
2023-04-23T11:26:12.375Z,11020.00
2023-04-23T11:27:12.331Z,11176.00
2023-04-23T11:28:12.324Z,11356.00
2023-04-23T11:29:12.324Z,11292.00
2023-04-23T11:30:12.342Z,11080.00
2023-04-23T11:31:12.323Z,10964.00
2023-04-23T11:32:12.310Z,10940.00
2023-04-23T11:33:12.314Z,10728.00
2023-04-23T11:34:12.275Z,11028.00
2023-04-23T11:35:13.730Z,11348.00
2023-04-23T11:36:13.296Z,13928.00
2023-04-23T11:37:12.254Z,13712.00
2023-04-23T11:38:12.262Z,11916.00
2023-04-23T11:39:12.246Z,11584.00
2023-04-23T11:40:12.246Z,11180.00
2023-04-23T11:41:12.263Z,10664.00
2023-04-23T11:42:12.240Z,10184.00
2023-04-23T11:43:12.212Z,9896.00
2023-04-23T11:44:12.197Z,11644.00
2023-04-23T11:45:12.184Z,10468.00
2023-04-23T11:46:12.235Z,12056.00
2023-04-23T11:47:12.184Z,10892.00
2023-04-23T11:48:12.165Z,11752.00
2023-04-23T11:49:12.159Z,14388.00
2023-04-23T11:50:12.198Z,14760.00
2023-04-23T11:51:12.176Z,14016.00
2023-04-23T11:52:12.164Z,12804.00
2023-04-23T11:53:12.138Z,13164.00
2023-04-23T11:54:12.170Z,11432.00
2023-04-23T11:55:12.123Z,10800.00
2023-04-23T11:56:12.126Z,10684.00
2023-04-23T11:57:12.114Z,10568.00
2023-04-23T11:58:12.092Z,10512.00
2023-04-23T11:59:12.077Z,10212.00
2023-04-23T12:00:12.112Z,10004.00
2023-04-23T12:01:12.100Z,9736.00
2023-04-23T12:02:12.116Z,9668.00
2023-04-23T12:03:12.303Z,9884.00
2023-04-23T12:04:12.231Z,10232.00
2023-04-23T12:05:12.051Z,10560.00
2023-04-23T12:06:12.048Z,10888.00
2023-04-23T12:07:25.337Z,11180.00
2023-04-23T12:08:13.999Z,11668.00
2023-04-23T12:09:12.009Z,12296.00
2023-04-23T12:10:11.984Z,12804.00
2023-04-23T12:11:11.995Z,13112.00
2023-04-23T12:12:11.973Z,13484.00
2023-04-23T12:13:11.972Z,12972.00
2023-04-23T12:14:11.951Z,12768.00
2023-04-23T12:15:11.943Z,12208.00
2023-04-23T12:16:11.980Z,11696.00
2023-04-23T12:17:11.949Z,11164.00
2023-04-23T12:18:11.937Z,10568.00
2023-04-23T12:19:11.914Z,10148.00
2023-04-23T12:20:11.905Z,9700.00
2023-04-23T12:21:11.943Z,9272.00
2023-04-23T12:22:11.894Z,9004.00